Time;durP1;ratioP1;P1;durP2;ratioP2;P2;SDS_P1;SDS_P2;PMS_P1;PMS_P2;Temp;Humidity;BMP_temperature;BMP_pressure;BME280_temperature;BME280_humidity;BME280_pressure;Samples;Min_cycle;Max_cycle;Signal;HPM_P1;HPM_P2
2021/08/05 00:02:11;;;;;;;8.25;3.55;;;17.90;99.90;;;;;;5052729;28;20062;-87
2021/08/05 00:04:37;;;;;;;5.18;3.58;;;17.90;99.90;;;;;;5052522;28;20028;-88
2021/08/05 00:07:03;;;;;;;7.03;3.88;;;17.90;99.90;;;;;;5053658;28;20033;-87
2021/08/05 00:09:29;;;;;;;6.40;3.90;;;17.90;99.90;;;;;;5052462;28;20111;-88
2021/08/05 00:11:54;;;;;;;5.75;4.00;;;17.80;99.90;;;;;;5052445;28;20056;-86
2021/08/05 00:14:20;;;;;;;5.35;3.38;;;17.80;99.90;;;;;;5052701;28;20024;-87
2021/08/05 00:16:46;;;;;;;5.85;3.95;;;17.70;99.90;;;;;;5052006;28;20033;-89
2021/08/05 00:19:11;;;;;;;3.90;3.50;;;17.70;99.90;;;;;;5052360;28;20027;-88
2021/08/05 00:21:37;;;;;;;4.57;3.78;;;17.70;99.90;;;;;;5052394;28;20033;-87
2021/08/05 00:24:03;;;;;;;5.38;3.53;;;17.70;99.90;;;;;;5053702;28;20028;-89
2021/08/05 00:26:28;;;;;;;5.90;3.60;;;17.70;99.90;;;;;;5052561;28;20159;-89
2021/08/05 00:28:54;;;;;;;8.65;3.72;;;17.80;99.90;;;;;;5052456;28;20025;-87
2021/08/05 00:31:20;;;;;;;5.43;3.75;;;17.70;99.90;;;;;;5052137;28;20028;-85
2021/08/05 00:33:45;;;;;;;6.00;3.72;;;17.70;99.90;;;;;;5054122;28;20484;-86
2021/08/05 00:36:11;;;;;;;5.47;3.63;;;17.70;99.90;;;;;;5056057;28;20036;-87
2021/08/05 00:38:37;;;;;;;4.78;3.75;;;17.70;99.90;;;;;;5055899;28;20030;-87
2021/08/05 00:41:03;;;;;;;3.85;3.45;;;17.80;99.90;;;;;;5055513;28;20040;-87
2021/08/05 00:43:29;;;;;;;5.97;3.70;;;17.80;99.90;;;;;;5055690;28;20025;-87
2021/08/05 00:45:55;;;;;;;6.43;3.65;;;17.80;99.90;;;;;;5055786;28;20047;-87
2021/08/05 00:48:20;;;;;;;7.80;4.10;;;17.80;99.90;;;;;;5055586;28;20564;-87
2021/08/05 00:50:48;;;;;;;11.82;9.70;;;17.80;99.90;;;;;;5055610;28;20028;-86
2021/08/05 00:53:15;;;;;;;12.68;11.65;;;17.70;99.90;;;;;;5055615;28;20017;-88
2021/08/05 00:55:41;;;;;;;7.78;7.18;;;17.70;99.90;;;;;;5055481;28;20025;-88
2021/08/05 00:58:06;;;;;;;7.68;6.90;;;17.80;99.90;;;;;;5056600;28;20105;-89
2021/08/05 01:00:32;;;;;;;7.13;3.63;;;17.70;99.90;;;;;;5055041;28;20033;-86
2021/08/05 01:03:06;;;;;;;6.63;3.70;;;17.80;99.90;;;;;;5055559;28;20025;-88
2021/08/05 01:05:41;;;;;;;8.02;3.80;;;17.70;99.90;;;;;;5055743;28;20550;-86
2021/08/05 01:08:10;;;;;;;6.60;4.87;;;17.70;99.90;;;;;;5055619;28;20047;-85
2021/08/05 01:10:45;;;;;;;8.45;3.97;;;17.70;99.90;;;;;;5055202;28;20021;-88
2021/08/05 01:13:22;;;;;;;7.97;4.30;;;17.70;99.90;;;;;;5055601;28;20427;-88
2021/08/05 01:15:52;;;;;;;6.05;3.33;;;17.80;99.90;;;;;;5055421;28;20074;-87
2021/08/05 01:18:24;;;;;;;6.82;4.10;;;17.80;99.90;;;;;;5055187;28;20033;-88
2021/08/05 01:20:50;;;;;;;5.60;4.38;;;17.70;99.90;;;;;;5055148;28;20048;-89
2021/08/05 01:23:38;;;;;;;7.55;4.38;;;17.70;99.90;;;;;;5055082;28;20503;-87
2021/08/05 01:26:22;;;;;;;4.88;4.07;;;17.70;99.90;;;;;;5054966;28;20056;-86
2021/08/05 01:28:48;;;;;;;3.97;3.45;;;17.70;99.90;;;;;;5055072;28;20028;-84
2021/08/05 01:31:16;;;;;;;8.20;3.92;;;17.70;99.90;;;;;;5054914;28;20021;-89
2021/08/05 01:33:42;;;;;;;6.05;4.05;;;17.80;99.90;;;;;;5054888;28;20055;-86
2021/08/05 01:36:08;;;;;;;3.90;3.47;;;17.70;99.90;;;;;;5054906;28;20021;-86
2021/08/05 01:38:35;;;;;;;6.68;3.85;;;17.70;99.90;;;;;;5054785;28;20029;-86
2021/08/05 01:41:04;;;;;;;5.18;3.33;;;17.70;99.90;;;;;;5054858;28;20039;-87
2021/08/05 01:43:31;;;;;;;3.85;3.35;;;17.70;99.90;;;;;;5055519;28;20025;-86
2021/08/05 01:45:57;;;;;;;6.80;3.45;;;17.70;99.90;;;;;;5054567;28;20024;-87
2021/08/05 01:48:24;;;;;;;5.90;3.42;;;17.70;99.90;;;;;;5055427;28;20124;-84
2021/08/05 01:50:51;;;;;;;6.95;3.60;;;17.70;99.90;;;;;;5054779;28;20029;-87
2021/08/05 01:53:17;;;;;;;4.57;3.97;;;17.70;99.90;;;;;;5054455;28;20025;-86
2021/08/05 01:55:44;;;;;;;4.95;3.47;;;17.70;99.90;;;;;;5054623;28;20492;-85
2021/08/05 01:58:10;;;;;;;4.53;3.30;;;17.70;99.90;;;;;;5054596;28;20035;-84
2021/08/05 02:00:36;;;;;;;8.45;3.72;;;17.70;99.90;;;;;;5054424;28;20033;-88
2021/08/05 02:03:08;;;;;;;7.53;3.10;;;17.80;99.90;;;;;;5054447;28;20036;-88
2021/08/05 02:05:43;;;;;;;4.63;3.83;;;17.80;99.90;;;;;;5055470;28;20029;-85
2021/08/05 02:08:12;;;;;;;7.32;2.60;;;17.70;99.90;;;;;;5054343;28;20017;-86
2021/08/05 02:10:41;;;;;;;6.53;3.03;;;17.70;99.90;;;;;;5054410;28;20021;-87
2021/08/05 02:13:12;;;;;;;5.68;3.40;;;17.70;99.90;;;;;;5055178;28;20021;-89
2021/08/05 02:15:44;;;;;;;9.45;3.17;;;17.70;99.90;;;;;;5054152;28;20036;-84
2021/08/05 02:18:13;;;;;;;6.80;3.60;;;17.70;99.90;;;;;;5055285;28;20021;-88
2021/08/05 02:20:41;;;;;;;7.82;3.80;;;17.60;99.90;;;;;;5054291;28;20112;-89
2021/08/05 02:23:09;;;;;;;6.40;3.97;;;17.50;99.90;;;;;;5054047;28;20058;-86
2021/08/05 02:25:36;;;;;;;8.48;4.15;;;17.50;99.90;;;;;;5053954;28;20029;-85
2021/08/05 02:28:02;;;;;;;8.80;3.45;;;17.60;99.90;;;;;;5053830;28;20036;-86
2021/08/05 02:30:28;;;;;;;9.98;4.03;;;17.50;99.90;;;;;;5053802;28;20104;-92
2021/08/05 02:32:53;;;;;;;5.57;3.53;;;17.50;99.90;;;;;;5053933;28;20040;-87
2021/08/05 02:35:20;;;;;;;8.40;3.70;;;17.50;99.90;;;;;;5054193;28;20527;-92
2021/08/05 02:37:46;;;;;;;7.30;3.67;;;17.50;99.90;;;;;;5054926;28;20029;-92
2021/08/05 02:40:12;;;;;;;7.68;4.00;;;17.40;99.90;;;;;;5053565;28;20051;-91
2021/08/05 02:42:39;;;;;;;6.30;3.83;;;17.40;99.90;;;;;;5054327;28;21141;-91
2021/08/05 02:45:06;;;;;;;8.07;4.13;;;17.30;99.90;;;;;;5053644;28;20387;-89
2021/08/05 02:47:32;;;;;;;7.80;3.83;;;17.30;99.90;;;;;;5053877;28;20059;-90
2021/08/05 02:50:01;;;;;;;7.20;4.05;;;17.30;99.90;;;;;;5054752;28;20025;-90
2021/08/05 02:52:27;;;;;;;6.15;4.13;;;17.20;99.90;;;;;;5056263;28;20017;-88
2021/08/05 02:54:54;;;;;;;9.40;4.68;;;17.20;99.90;;;;;;5058026;28;20029;-90
2021/08/05 02:57:19;;;;;;;5.00;4.13;;;17.20;99.90;;;;;;5058436;28;20021;-87
2021/08/05 02:59:46;;;;;;;8.25;5.50;;;17.20;99.90;;;;;;5060494;28;20040;-87
2021/08/05 03:02:14;;;;;;;7.88;5.72;;;17.10;99.90;;;;;;5059948;28;20036;-90
2021/08/05 03:04:40;;;;;;;5.50;4.93;;;17.10;99.90;;;;;;5059373;28;20045;-92
2021/08/05 03:07:07;;;;;;;10.15;4.93;;;17.10;99.90;;;;;;5058853;28;20040;-87
2021/08/05 03:09:33;;;;;;;9.40;5.28;;;17.00;99.90;;;;;;5056313;28;20025;-89
2021/08/05 03:11:59;;;;;;;8.05;5.13;;;17.00;99.90;;;;;;5053144;28;20171;-90
2021/08/05 03:14:24;;;;;;;6.70;4.80;;;17.00;99.90;;;;;;5056573;28;20021;-88
2021/08/05 03:16:50;;;;;;;7.50;5.18;;;17.00;99.90;;;;;;5073688;22;20614;-89
2021/08/05 03:19:16;;;;;;;7.30;5.50;;;17.00;99.90;;;;;;5065057;28;20025;-89
2021/08/05 03:21:41;;;;;;;9.88;4.95;;;17.00;99.90;;;;;;5054760;28;20064;-90
2021/08/05 03:24:07;;;;;;;6.88;5.22;;;17.00;99.90;;;;;;5053609;28;20028;-92
2021/08/05 03:26:33;;;;;;;7.38;5.15;;;16.90;99.90;;;;;;5054432;28;20025;-91
2021/08/05 03:28:58;;;;;;;5.78;5.18;;;16.90;99.90;;;;;;5054222;28;20025;-91
2021/08/05 03:31:24;;;;;;;6.88;5.88;;;17.00;99.90;;;;;;5053422;28;20032;-88
2021/08/05 03:33:50;;;;;;;6.20;5.50;;;16.90;99.90;;;;;;5053366;28;20021;-91
2021/08/05 03:36:15;;;;;;;6.75;5.47;;;16.90;99.90;;;;;;5053318;28;20025;-89
2021/08/05 03:38:41;;;;;;;8.38;5.68;;;16.90;99.90;;;;;;5053375;28;20517;-89
2021/08/05 03:41:07;;;;;;;7.60;5.65;;;16.90;99.90;;;;;;5053046;28;20033;-89
2021/08/05 03:43:34;;;;;;;9.52;5.97;;;16.90;99.90;;;;;;5052916;28;20483;-92
2021/08/05 03:45:59;;;;;;;7.07;5.90;;;16.90;99.90;;;;;;5053067;28;20021;-89
2021/08/05 03:48:25;;;;;;;7.60;5.90;;;16.80;99.90;;;;;;5052721;28;20029;-87
2021/08/05 03:50:51;;;;;;;8.35;5.70;;;16.90;99.90;;;;;;5052757;28;20021;-90
2021/08/05 03:53:17;;;;;;;7.57;5.45;;;16.90;99.90;;;;;;5052750;28;20074;-91
2021/08/05 03:55:42;;;;;;;9.13;5.32;;;16.90;99.90;;;;;;5052842;28;20024;-89
2021/08/05 03:58:09;;;;;;;9.25;5.88;;;16.80;99.90;;;;;;5053303;28;20033;-86
2021/08/05 04:00:36;;;;;;;11.80;5.78;;;16.90;99.90;;;;;;5052880;28;20029;-88
2021/08/05 04:03:02;;;;;;;5.47;4.93;;;16.90;99.90;;;;;;5036242;28;20029;-91
2021/08/05 04:05:29;;;;;;;7.80;5.28;;;16.90;99.90;;;;;;5052845;28;20116;-91
2021/08/05 04:07:54;;;;;;;8.63;5.20;;;16.90;99.90;;;;;;5053124;28;20535;-89
2021/08/05 04:10:21;;;;;;;8.05;5.47;;;17.00;99.90;;;;;;5057421;28;20029;-90
2021/08/05 04:12:46;;;;;;;8.02;5.63;;;16.90;99.90;;;;;;5056801;28;20028;-88
2021/08/05 04:15:12;;;;;;;6.07;5.47;;;16.90;99.90;;;;;;5056606;28;20029;-89
2021/08/05 04:17:39;;;;;;;7.45;6.63;;;16.90;99.90;;;;;;5056387;28;20073;-90
2021/08/05 04:20:06;;;;;;;7.95;6.40;;;17.00;99.90;;;;;;5056433;28;20055;-89
2021/08/05 04:22:31;;;;;;;8.68;6.65;;;17.00;99.90;;;;;;5056256;28;20112;-87
2021/08/05 04:24:57;;;;;;;8.10;7.32;;;17.00;99.90;;;;;;5056223;28;20444;-91
2021/08/05 04:27:23;;;;;;;10.73;7.03;;;17.00;99.90;;;;;;5056197;28;20028;-88
2021/08/05 04:29:49;;;;;;;10.30;6.93;;;17.00;99.90;;;;;;5056871;28;20032;-86
2021/08/05 04:32:14;;;;;;;20.17;14.55;;;17.10;99.90;;;;;;5056515;28;20029;-89
2021/08/05 04:34:40;;;;;;;10.15;8.32;;;17.00;99.90;;;;;;5058931;28;20088;-87
2021/08/05 04:37:06;;;;;;;8.25;4.43;;;17.10;99.90;;;;;;5055835;28;20059;-83
2021/08/05 04:39:32;;;;;;;7.30;5.20;;;17.60;99.90;;;;;;5055425;28;20029;-81
2021/08/05 04:41:58;;;;;;;5.30;4.25;;;18.50;99.90;;;;;;5057044;28;20105;-84
2021/08/05 04:44:23;;;;;;;5.10;4.03;;;18.90;99.90;;;;;;5057751;28;20423;-80
2021/08/05 04:46:49;;;;;;;7.28;4.05;;;19.20;99.90;;;;;;5058142;28;20387;-81
2021/08/05 04:49:15;;;;;;;4.70;3.28;;;19.80;99.90;;;;;;5055664;28;20025;-81
2021/08/05 04:51:41;;;;;;;4.57;2.75;;;19.90;99.90;;;;;;5055597;28;20491;-81
2021/08/05 04:54:07;;;;;;;5.97;3.08;;;19.90;99.90;;;;;;5055774;28;20375;-81
2021/08/05 04:56:33;;;;;;;5.60;3.10;;;19.70;99.90;;;;;;5055651;28;20033;-82
2021/08/05 04:58:59;;;;;;;5.22;2.85;;;19.70;99.90;;;;;;5055549;28;20051;-81
2021/08/05 05:01:25;;;;;;;4.55;2.78;;;19.70;99.90;;;;;;5055099;28;20041;-81
2021/08/05 05:03:51;;;;;;;3.53;2.53;;;20.20;99.90;;;;;;5055344;28;20119;-81
2021/08/05 05:06:17;;;;;;;3.92;2.70;;;20.00;99.90;;;;;;5055409;28;20032;-82
2021/08/05 05:08:42;;;;;;;4.88;2.50;;;19.50;99.90;;;;;;5058035;28;20025;-83
2021/08/05 05:11:08;;;;;;;4.25;2.80;;;19.50;99.90;;;;;;5055112;28;20050;-83
2021/08/05 05:13:34;;;;;;;6.53;3.35;;;19.40;99.90;;;;;;5056088;28;20028;-83
2021/08/05 05:15:59;;;;;;;4.70;3.17;;;19.20;99.90;;;;;;5055178;28;20052;-83
2021/08/05 05:18:26;;;;;;;6.93;3.10;;;19.10;99.90;;;;;;5054852;28;20084;-83
2021/08/05 05:20:52;;;;;;;4.97;3.17;;;18.90;99.90;;;;;;5055713;28;20065;-84
2021/08/05 05:23:19;;;;;;;5.38;3.15;;;18.80;99.90;;;;;;5054464;28;20017;-83
2021/08/05 05:25:45;;;;;;;4.88;3.20;;;19.00;99.90;;;;;;5054989;28;20052;-83
2021/08/05 05:28:12;;;;;;;4.80;3.25;;;19.10;99.90;;;;;;5054747;28;20025;-83
2021/08/05 05:30:38;;;;;;;3.85;2.90;;;19.00;99.90;;;;;;5054608;28;20025;-82
2021/08/05 05:33:05;;;;;;;3.53;2.28;;;19.20;99.90;;;;;;5054627;28;20017;-82
2021/08/05 05:35:31;;;;;;;3.55;2.78;;;19.60;99.90;;;;;;5054826;28;20051;-82
2021/08/05 05:37:58;;;;;;;3.28;2.58;;;19.50;99.90;;;;;;5054531;28;20464;-82
2021/08/05 05:40:25;;;;;;;5.28;2.58;;;19.30;99.90;;;;;;5055915;28;20610;-82
2021/08/05 05:42:53;;;;;;;4.72;2.50;;;19.50;99.90;;;;;;5054785;28;20029;-84
2021/08/05 05:45:19;;;;;;;3.03;2.30;;;19.30;99.90;;;;;;5054584;28;20025;-81
2021/08/05 05:47:45;;;;;;;3.38;2.22;;;19.00;99.90;;;;;;5053927;28;20132;-84
2021/08/05 05:50:12;;;;;;;2.63;2.42;;;19.20;99.90;;;;;;5053906;28;20111;-77
2021/08/05 05:52:40;;;;;;;2.72;2.00;;;19.50;99.90;;;;;;5053483;28;20117;-79
2021/08/05 05:55:06;;;;;;;3.55;1.70;;;19.50;99.90;;;;;;5052743;28;20017;-80
2021/08/05 05:57:32;;;;;;;2.72;1.95;;;19.20;99.90;;;;;;5053399;28;20025;-80
2021/08/05 05:59:58;;;;;;;2.47;1.70;;;19.00;99.90;;;;;;5054017;28;20074;-83
2021/08/05 06:02:23;;;;;;;1.80;1.60;;;18.30;99.90;;;;;;5055182;28;20044;-81
2021/08/05 06:04:49;;;;;;;1.67;1.58;;;18.10;99.90;;;;;;5053922;28;20029;-83
2021/08/05 06:07:14;;;;;;;3.28;1.50;;;17.90;99.90;;;;;;5055277;28;20064;-82
2021/08/05 06:09:40;;;;;;;2.00;1.80;;;17.90;99.90;;;;;;5053768;28;20067;-83
2021/08/05 06:12:06;;;;;;;2.30;2.00;;;17.80;99.90;;;;;;5054987;28;20028;-82
2021/08/05 06:14:31;;;;;;;1.83;1.50;;;17.80;99.90;;;;;;5054049;28;20028;-84
2021/08/05 06:16:57;;;;;;;2.40;2.08;;;17.80;99.90;;;;;;5054681;28;20045;-82
2021/08/05 06:19:23;;;;;;;2.38;1.90;;;17.80;99.90;;;;;;5053839;28;20510;-82
2021/08/05 06:21:49;;;;;;;1.60;1.50;;;17.80;99.90;;;;;;5054943;28;20044;-81
2021/08/05 06:24:14;;;;;;;3.22;2.03;;;17.90;99.90;;;;;;5053596;28;20029;-82
2021/08/05 06:26:40;;;;;;;2.58;1.90;;;17.90;99.90;;;;;;5053829;28;20116;-82
2021/08/05 06:29:08;;;;;;;2.95;1.92;;;18.00;99.90;;;;;;5054875;28;20099;-83
2021/08/05 06:31:34;;;;;;;2.20;1.85;;;18.10;99.90;;;;;;5052997;28;20036;-82
2021/08/05 06:34:01;;;;;;;2.42;2.08;;;18.10;99.90;;;;;;5054038;28;20021;-83
2021/08/05 06:36:27;;;;;;;2.47;1.80;;;18.20;99.90;;;;;;5053401;28;20071;-82
2021/08/05 06:38:52;;;;;;;2.50;2.20;;;18.20;99.90;;;;;;5053506;28;20021;-82
2021/08/05 06:41:18;;;;;;;4.00;2.10;;;18.30;99.90;;;;;;5053312;28;20056;-83
2021/08/05 06:43:44;;;;;;;3.35;2.10;;;18.20;99.90;;;;;;5053378;28;20439;-81
2021/08/05 06:46:10;;;;;;;2.35;1.95;;;18.20;99.90;;;;;;5053430;28;20025;-81
2021/08/05 06:48:35;;;;;;;2.15;1.90;;;18.30;99.90;;;;;;5054473;28;20535;-80
2021/08/05 06:51:01;;;;;;;2.65;1.90;;;18.30;99.90;;;;;;5054559;28;20029;-80
2021/08/05 06:53:27;;;;;;;2.22;1.98;;;18.30;99.90;;;;;;5054410;28;20021;-81
2021/08/05 06:55:52;;;;;;;3.95;2.15;;;18.30;99.90;;;;;;5053345;28;20120;-85
2021/08/05 06:58:20;;;;;;;3.97;2.72;;;18.30;99.90;;;;;;5053199;28;20021;-81
2021/08/05 07:00:46;;;;;;;5.43;2.40;;;18.30;99.90;;;;;;5053099;28;20051;-80
2021/08/05 07:03:12;;;;;;;6.30;2.72;;;18.40;99.90;;;;;;5052922;28;20025;-80
2021/08/05 07:05:37;;;;;;;3.25;2.42;;;18.40;99.90;;;;;;5053086;28;20024;-81
2021/08/05 07:08:03;;;;;;;3.00;2.60;;;18.60;99.90;;;;;;5053134;28;20033;-80
2021/08/05 07:10:29;;;;;;;3.45;2.75;;;18.90;99.90;;;;;;5053084;28;20025;-81
2021/08/05 07:12:55;;;;;;;3.47;2.58;;;19.20;99.90;;;;;;5052880;28;20365;-80
2021/08/05 07:15:21;;;;;;;2.70;1.85;;;19.40;99.90;;;;;;5052601;28;20083;-78
2021/08/05 07:17:47;;;;;;;2.63;1.90;;;19.50;99.90;;;;;;5051926;28;20041;-78
2021/08/05 07:20:13;;;;;;;2.28;1.10;;;19.60;99.90;;;;;;5052478;28;20055;-79
2021/08/05 07:22:40;;;;;;;2.28;1.60;;;19.90;99.90;;;;;;5051456;28;20086;-79
2021/08/05 07:25:08;;;;;;;2.55;1.75;;;20.40;99.90;;;;;;5051594;28;20047;-80
2021/08/05 07:27:36;;;;;;;1.77;1.50;;;20.60;99.90;;;;;;5052463;28;20032;-78
2021/08/05 07:30:01;;;;;;;3.95;1.50;;;20.80;99.90;;;;;;5052528;28;20025;-78
2021/08/05 07:32:27;;;;;;;2.00;1.70;;;20.80;99.90;;;;;;5052228;28;20108;-78
2021/08/05 07:34:53;;;;;;;2.35;1.50;;;20.90;99.90;;;;;;5052701;28;20115;-81
2021/08/05 07:37:18;;;;;;;1.83;1.65;;;20.80;99.90;;;;;;5052867;28;20037;-81
2021/08/05 07:39:44;;;;;;;2.15;1.40;;;20.90;99.90;;;;;;5052682;28;20017;-82
2021/08/05 07:42:10;;;;;;;2.05;1.25;;;20.90;99.90;;;;;;5053144;28;20089;-80
2021/08/05 07:44:35;;;;;;;2.17;1.30;;;21.00;99.90;;;;;;5056687;28;20036;-84
2021/08/05 07:47:01;;;;;;;1.70;1.30;;;21.00;99.90;;;;;;5056878;28;20041;-82
2021/08/05 07:49:27;;;;;;;3.00;1.40;;;21.10;99.90;;;;;;5056759;28;20483;-82
2021/08/05 07:51:53;;;;;;;3.20;1.20;;;21.10;99.90;;;;;;5056670;28;20033;-82
2021/08/05 07:54:19;;;;;;;1.60;1.17;;;21.10;99.90;;;;;;5056675;28;20028;-82
2021/08/05 07:56:44;;;;;;;3.20;1.42;;;21.00;99.90;;;;;;5056867;28;20028;-83
2021/08/05 07:59:10;;;;;;;2.22;0.98;;;20.90;99.90;;;;;;5056720;28;20031;-82
2021/08/05 08:01:36;;;;;;;1.40;1.30;;;20.80;99.90;;;;;;5056530;28;20043;-86
2021/08/05 08:04:02;;;;;;;1.58;1.10;;;20.80;99.90;;;;;;5056419;28;20028;-83
2021/08/05 08:06:27;;;;;;;2.63;0.90;;;21.10;99.90;;;;;;5056521;28;20052;-86
2021/08/05 08:08:53;;;;;;;1.10;0.90;;;21.10;99.90;;;;;;5056619;28;20021;-86
2021/08/05 08:11:23;;;;;;;2.35;1.02;;;21.10;99.90;;;;;;5056391;28;20024;-81
2021/08/05 08:13:50;;;;;;;4.28;1.10;;;21.10;99.90;;;;;;5056252;28;20017;-80
2021/08/05 08:16:19;;;;;;;2.05;0.90;;;20.90;99.90;;;;;;5055762;28;20040;-80
2021/08/05 08:18:44;;;;;;;1.00;0.73;;;20.90;99.90;;;;;;5056214;28;20029;-80
2021/08/05 08:21:10;;;;;;;1.58;0.77;;;21.00;99.90;;;;;;5055947;28;20032;-79
2021/08/05 08:23:36;;;;;;;1.05;0.75;;;21.10;99.90;;;;;;5055978;28;20025;-80
2021/08/05 08:26:03;;;;;;;1.00;0.80;;;21.10;99.90;;;;;;5056050;28;20388;-81
2021/08/05 08:28:28;;;;;;;2.92;1.00;;;21.10;99.90;;;;;;5056910;28;20020;-78
2021/08/05 08:30:54;;;;;;;2.60;1.13;;;21.20;99.90;;;;;;5055239;28;20400;-80
2021/08/05 08:33:20;;;;;;;2.70;1.02;;;21.30;99.90;;;;;;5056577;28;20036;-83
2021/08/05 08:35:46;;;;;;;1.13;1.00;;;21.30;99.90;;;;;;5055784;28;20027;-80
2021/08/05 08:38:11;;;;;;;0.95;0.85;;;21.30;99.90;;;;;;5057604;28;20025;-81
2021/08/05 08:40:37;;;;;;;2.55;1.10;;;21.40;99.90;;;;;;5055209;28;20063;-79
2021/08/05 08:43:05;;;;;;;1.35;0.93;;;21.40;99.90;;;;;;5056009;28;20045;-79
2021/08/05 08:45:31;;;;;;;1.80;0.90;;;21.40;99.90;;;;;;5058098;28;20017;-81
2021/08/05 08:47:59;;;;;;;1.73;1.40;;;21.30;99.90;;;;;;5058513;28;20092;-83
2021/08/05 08:50:32;;;;;;;1.83;1.00;;;21.10;99.90;;;;;;5054724;28;20017;-79
2021/08/05 08:53:04;;;;;;;3.67;1.13;;;21.00;99.90;;;;;;5055415;28;20050;-78
2021/08/05 08:55:31;;;;;;;2.35;1.00;;;21.00;99.90;;;;;;5054190;28;20074;-79
2021/08/05 08:57:59;;;;;;;3.80;1.35;;;20.90;99.90;;;;;;5054770;28;20021;-80
2021/08/05 09:00:25;;;;;;;4.32;1.30;;;20.70;99.90;;;;;;5053930;28;20017;-79
2021/08/05 09:02:51;;;;;;;2.15;0.73;;;20.60;99.90;;;;;;5055394;28;20055;-79
2021/08/05 09:05:18;;;;;;;0.93;0.82;;;20.50;99.90;;;;;;5056341;28;20455;-78
2021/08/05 09:07:45;;;;;;;4.22;1.10;;;20.30;99.90;;;;;;5054545;28;20087;-87
2021/08/05 09:10:11;;;;;;;1.75;0.90;;;20.20;99.90;;;;;;5054677;28;20020;-87
2021/08/05 09:12:41;;;;;;;0.95;0.60;;;20.20;99.90;;;;;;5054679;28;20025;-79
2021/08/05 09:15:08;;;;;;;3.20;0.60;;;20.20;99.90;;;;;;5054722;28;20548;-79
2021/08/05 09:17:38;;;;;;;1.83;0.60;;;20.10;99.90;;;;;;5054755;28;20056;-79
2021/08/05 09:20:09;;;;;;;1.38;0.28;;;20.00;99.90;;;;;;5054071;28;20083;-79
2021/08/05 09:22:41;;;;;;;0.85;0.40;;;19.90;99.90;;;;;;5054789;28;20082;-89
2021/08/05 09:25:44;;;;;;;0.73;0.30;;;19.80;99.90;;;;;;5054247;28;20025;-80
2021/08/05 09:28:16;;;;;;;2.75;0.70;;;19.80;99.90;;;;;;5050383;28;20424;-80
2021/08/05 09:30:44;;;;;;;0.82;0.30;;;20.00;99.90;;;;;;5054567;28;20021;-84
2021/08/05 09:33:17;;;;;;;1.17;0.30;;;19.80;99.90;;;;;;5055651;28;20049;-85
2021/08/05 09:35:45;;;;;;;0.50;0.13;;;19.60;99.90;;;;;;5055225;28;20494;-81
2021/08/05 09:38:22;;;;;;;2.28;0.20;;;19.50;99.90;;;;;;5062957;28;20021;-81
2021/08/05 09:41:05;;;;;;;1.02;0.10;;;19.30;99.90;;;;;;5056295;28;20043;-81
2021/08/05 09:43:31;;;;;;;2.03;0.20;;;19.20;99.90;;;;;;5059783;28;20020;-80
2021/08/05 09:45:57;;;;;;;1.90;0.10;;;19.10;99.90;;;;;;5061824;28;20029;-82
2021/08/05 09:48:34;;;;;;;0.57;0.10;;;19.10;99.90;;;;;;5058661;28;20025;-80
2021/08/05 09:51:04;;;;;;;1.20;0.50;;;19.10;99.90;;;;;;5058310;28;20028;-81
2021/08/05 09:53:30;;;;;;;4.03;0.43;;;19.10;99.90;;;;;;5060106;28;20112;-80
2021/08/05 09:56:12;;;;;;;5.75;0.40;;;19.30;99.90;;;;;;5060840;28;20063;-86
2021/08/05 09:58:38;;;;;;;1.02;0.20;;;19.40;99.90;;;;;;5057242;28;20491;-84
2021/08/05 10:01:08;;;;;;;2.15;0.20;;;19.40;99.90;;;;;;5055825;28;20033;-84
2021/08/05 10:03:34;;;;;;;5.15;0.22;;;19.50;99.90;;;;;;5060912;28;20025;-82
2021/08/05 10:06:05;;;;;;;1.23;0.40;;;19.50;99.90;;;;;;5054066;28;20021;-82
2021/08/05 10:08:42;;;;;;;2.38;0.43;;;19.40;99.90;;;;;;5054322;28;20021;-83
2021/08/05 10:11:08;;;;;;;3.67;0.40;;;19.30;99.90;;;;;;5054142;28;20376;-82
2021/08/05 10:13:36;;;;;;;3.97;0.40;;;19.20;99.90;;;;;;5054176;28;20029;-83
2021/08/05 10:16:04;;;;;;;1.95;0.47;;;19.10;99.90;;;;;;5054402;28;20144;-83
2021/08/05 10:18:32;;;;;;;3.42;0.68;;;19.10;99.90;;;;;;5053752;28;20091;-84
2021/08/05 10:21:01;;;;;;;11.75;0.90;;;19.00;99.90;;;;;;5053942;28;20439;-85
2021/08/05 10:23:28;;;;;;;2.50;0.32;;;19.00;99.90;;;;;;5054082;28;20032;-81
2021/08/05 10:25:56;;;;;;;3.15;0.15;;;19.00;99.90;;;;;;5054140;28;20066;-81
2021/08/05 10:28:22;;;;;;;5.45;0.38;;;19.00;99.90;;;;;;5054178;28;20471;-87
2021/08/05 10:30:51;;;;;;;1.48;0.40;;;18.80;99.90;;;;;;5054142;28;20025;-86
2021/08/05 10:33:17;;;;;;;3.53;0.40;;;18.80;99.90;;;;;;5053632;28;20025;-85
2021/08/05 10:35:47;;;;;;;0.60;0.20;;;18.80;99.90;;;;;;5053647;28;20021;-85
2021/08/05 10:38:14;;;;;;;1.98;0.13;;;18.80;99.90;;;;;;5053750;28;20029;-85
2021/08/05 10:40:40;;;;;;;1.27;0.20;;;18.80;99.90;;;;;;5053514;28;20021;-84
2021/08/05 10:43:05;;;;;;;2.85;1.50;;;18.80;99.90;;;;;;5053345;28;20031;-84
2021/08/05 10:45:33;;;;;;;3.00;1.02;;;18.80;99.90;;;;;;5053468;28;20023;-83
2021/08/05 10:48:01;;;;;;;1.20;0.70;;;18.70;99.90;;;;;;5053765;28;20063;-84
2021/08/05 10:50:29;;;;;;;1.38;0.60;;;18.70;99.90;;;;;;5053359;28;20357;-84
2021/08/05 10:52:58;;;;;;;0.75;0.20;;;18.60;99.90;;;;;;5039708;28;20033;-88
2021/08/05 10:55:25;;;;;;;1.58;0.30;;;18.70;99.90;;;;;;5033517;28;20021;-83
2021/08/05 10:58:15;;;;;;;2.28;0.52;;;18.70;99.90;;;;;;5050108;28;20103;-85
2021/08/05 11:01:03;;;;;;;1.45;0.10;;;18.70;99.90;;;;;;5050068;28;20033;-83
2021/08/05 11:03:32;;;;;;;0.88;0.20;;;18.60;99.90;;;;;;5034461;28;20473;-84
2021/08/05 11:06:03;;;;;;;2.47;0.10;;;18.80;99.90;;;;;;5033342;28;20036;-83
2021/08/05 11:08:29;;;;;;;2.80;0.38;;;18.70;99.90;;;;;;5049739;28;20021;-83
2021/08/05 11:11:28;;;;;;;3.63;0.52;;;18.60;99.90;;;;;;5034379;28;20026;-84
2021/08/05 11:14:00;;;;;;;5.05;0.50;;;18.50;99.90;;;;;;5049826;28;20022;-84
2021/08/05 11:16:55;;;;;;;0.75;0.20;;;18.60;99.90;;;;;;5032926;28;20049;-86
2021/08/05 11:19:22;;;;;;;1.15;0.40;;;18.50;99.90;;;;;;5033265;28;20083;-86
2021/08/05 11:21:47;;;;;;;1.00;0.28;;;18.50;99.90;;;;;;5049770;28;20033;-83
2021/08/05 11:24:51;;;;;;;1.48;0.20;;;18.50;99.90;;;;;;5049774;28;20029;-85
2021/08/05 11:27:19;;;;;;;1.60;0.55;;;18.50;99.90;;;;;;5033470;28;20381;-87
2021/08/05 11:29:45;;;;;;;1.42;0.40;;;18.40;99.90;;;;;;5049688;28;20022;-88
2021/08/05 11:32:25;;;;;;;2.13;0.60;;;18.40;99.90;;;;;;5049624;28;20385;-87
2021/08/05 11:35:18;;;;;;;1.35;0.35;;;18.40;99.90;;;;;;5033126;28;20457;-86
2021/08/05 11:38:07;;;;;;;1.50;0.52;;;18.50;99.90;;;;;;5049710;28;20079;-85
2021/08/05 11:40:43;;;;;;;2.88;0.60;;;18.50;99.90;;;;;;5049649;28;20435;-88
2021/08/05 11:43:19;;;;;;;1.75;0.30;;;18.50;99.90;;;;;;5049434;28;20030;-88
2021/08/05 11:46:20;;;;;;;3.08;0.22;;;18.60;99.90;;;;;;5049627;28;20132;-87
2021/08/05 11:48:46;;;;;;;1.23;0.20;;;18.60;99.90;;;;;;5049556;28;20025;-85
2021/08/05 11:51:12;;;;;;;2.25;0.30;;;18.70;99.90;;;;;;5049399;28;20022;-87
2021/08/05 11:53:43;;;;;;;0.80;0.10;;;18.70;99.90;;;;;;5049150;28;20022;-86
2021/08/05 11:56:10;;;;;;;0.77;0.10;;;18.70;99.90;;;;;;5049419;28;20026;-87
2021/08/05 11:58:42;;;;;;;1.02;0.20;;;18.80;99.90;;;;;;5049047;28;20030;-89
2021/08/05 12:01:13;;;;;;;1.65;0.10;;;18.80;99.90;;;;;;5032582;28;20029;-87
2021/08/05 12:03:39;;;;;;;1.08;0.10;;;18.80;99.90;;;;;;5049348;28;20488;-86
2021/08/05 12:06:06;;;;;;;0.50;0.10;;;18.80;99.90;;;;;;5049421;28;20029;-87
2021/08/05 12:08:31;;;;;;;4.32;0.85;;;18.90;99.90;;;;;;5033915;28;20029;-86
2021/08/05 12:10:57;;;;;;;1.23;0.20;;;19.00;99.90;;;;;;5049594;28;20022;-86
2021/08/05 12:13:23;;;;;;;0.47;0.20;;;19.10;99.90;;;;;;5033796;28;20421;-83
2021/08/05 12:15:53;;;;;;;4.82;0.40;;;19.20;99.90;;;;;;5053471;28;20025;-88
2021/08/05 12:18:24;;;;;;;1.08;0.30;;;19.30;99.90;;;;;;5037944;28;20128;-87
2021/08/05 12:21:01;;;;;;;2.55;0.20;;;19.40;99.90;;;;;;5055430;28;20030;-86
2021/08/05 12:26:36;;;;;;;1.17;0.30;;;19.80;99.90;;;;;;5037008;28;20024;-79
2021/08/05 12:28:53;;;;;;;1.30;0.30;;;20.00;99.90;;;;;;5050210;28;20041;-83
2021/08/05 12:31:23;;;;;;;3.20;0.30;;;20.00;99.90;;;;;;5042793;28;20373;-83
2021/08/05 12:33:50;;;;;;;0.88;0.30;;;20.10;99.90;;;;;;5036481;28;20025;-82
2021/08/05 12:36:26;;;;;;;0.80;0.30;;;20.10;99.90;;;;;;5036095;28;20033;-81
2021/08/05 12:39:05;;;;;;;1.02;0.40;;;20.20;99.90;;;;;;5036025;28;20053;-79
2021/08/05 12:41:35;;;;;;;1.55;0.30;;;20.40;99.90;;;;;;5035757;28;20037;-83
2021/08/05 12:44:15;;;;;;;1.33;0.30;;;20.40;99.90;;;;;;5035869;28;20027;-80
2021/08/05 12:46:48;;;;;;;2.72;0.20;;;20.30;99.90;;;;;;5035260;28;20120;-79
2021/08/05 12:49:15;;;;;;;1.30;0.40;;;20.30;99.90;;;;;;5035567;28;20084;-82
2021/08/05 12:51:41;;;;;;;0.73;0.20;;;20.40;99.90;;;;;;5035697;28;20024;-81
2021/08/05 12:54:16;;;;;;;0.95;0.30;;;20.40;99.90;;;;;;5035562;28;20033;-79